Aspers, Pennsylvania
Current Conditions -  °F | °C
As of 10:53 AM on Sunday 21 Dec 2014 (Local Time) from KTHV Reporting Station
Broken Clouds Broken Clouds  
Wind Chill: -2°   Ceiling: 2700
Heat Index:   Visibility: 10mi
Dew Point: -6°   Wind: 10mph
Humidity: 57%   Direction: 350°N
Pressure: 30.34"   Gusts: NA
Location:  39.98°N, 77.22°W
Report Text: KTHV 211553Z AUTO 35009KT 10SM BKN027 02/M06 A3034 RMK AO2 SLP282 T00221056
Loading
Personal Weather Stations






























Interactive Weather Map New forecast layout! Learn more

10-Day Weather Forecast

Advertisements
Track Severe Weather on mobile